createdAt,value
2019-03-17T00:02:25.371Z,12.40
2019-03-17T00:04:55.466Z,12.50
2019-03-17T00:07:26.303Z,12.50
2019-03-17T00:09:56.756Z,12.50
2019-03-17T00:12:27.638Z,12.40
2019-03-17T00:15:05.299Z,12.50
2019-03-17T00:17:30.116Z,12.50
2019-03-17T00:20:02.988Z,12.40
2019-03-17T00:22:31.148Z,12.30
2019-03-17T00:25:09.204Z,12.30
2019-03-17T00:27:32.665Z,12.20
2019-03-17T00:30:03.701Z,12.10
2019-03-17T00:32:36.365Z,12.30
2019-03-17T00:35:08.085Z,12.30
2019-03-17T00:37:38.153Z,12.30
2019-03-17T00:40:12.045Z,12.30
2019-03-17T00:42:41.929Z,12.20
2019-03-17T00:45:12.467Z,12.20
2019-03-17T00:47:42.806Z,12.20
2019-03-17T00:50:13.828Z,12.00
2019-03-17T00:52:43.598Z,11.90
2019-03-17T00:55:15.963Z,11.90
2019-03-17T00:57:46.673Z,11.80
2019-03-17T01:00:18.650Z,11.80
2019-03-17T01:02:48.385Z,11.80
2019-03-17T01:05:20.176Z,11.90
2019-03-17T01:07:57.740Z,11.90
2019-03-17T01:10:30.277Z,11.90
2019-03-17T01:13:03.974Z,11.70
2019-03-17T01:15:36.029Z,11.60
2019-03-17T01:18:06.868Z,11.50
2019-03-17T01:20:36.991Z,11.40
2019-03-17T01:23:08.758Z,11.30
2019-03-17T01:25:41.471Z,11.20
2019-03-17T01:28:14.947Z,11.00
2019-03-17T01:30:48.286Z,10.90
2019-03-17T01:33:18.361Z,10.90
2019-03-17T01:35:49.860Z,10.90
2019-03-17T01:38:19.514Z,11.00
2019-03-17T01:40:49.791Z,11.00
2019-03-17T01:43:19.791Z,10.90
2019-03-17T01:45:49.707Z,10.90
2019-03-17T01:48:19.382Z,10.80
2019-03-17T01:50:49.227Z,10.70
2019-03-17T01:53:20.789Z,10.70
2019-03-17T01:55:50.194Z,10.60
2019-03-17T01:58:23.217Z,10.50
2019-03-17T02:01:00.053Z,10.40
2019-03-17T02:03:29.726Z,10.40
2019-03-17T02:06:00.179Z,10.30
2019-03-17T02:08:39.132Z,10.20
2019-03-17T02:11:11.378Z,10.20
2019-03-17T02:13:41.911Z,10.10
2019-03-17T02:16:11.772Z,10.00
2019-03-17T02:18:41.422Z,10.00
2019-03-17T02:21:12.399Z,10.10
2019-03-17T02:23:41.987Z,10.10
2019-03-17T02:26:11.752Z,10.00
2019-03-17T02:28:43.522Z,10.10
2019-03-17T02:31:13.506Z,10.00
2019-03-17T02:33:47.706Z,10.00
2019-03-17T02:36:19.037Z,9.90
2019-03-17T02:38:48.593Z,9.90
2019-03-17T02:41:18.475Z,9.90
2019-03-17T02:43:49.470Z,9.90
2019-03-17T02:46:18.984Z,9.90
2019-03-17T02:48:48.703Z,9.90
2019-03-17T02:51:20.945Z,9.90
2019-03-17T02:53:50.885Z,9.80
2019-03-17T02:56:20.578Z,9.80
2019-03-17T02:58:50.429Z,9.70
2019-03-17T03:01:20.559Z,9.70
2019-03-17T03:03:50.272Z,9.60
2019-03-17T03:06:20.219Z,9.40
2019-03-17T03:08:49.680Z,9.70
2019-03-17T03:11:19.205Z,9.90
2019-03-17T03:13:50.433Z,9.90
2019-03-17T03:16:20.204Z,9.80
2019-03-17T03:18:50.319Z,9.70
2019-03-17T03:21:19.624Z,9.80
2019-03-17T03:23:49.352Z,9.80
2019-03-17T03:26:19.572Z,9.80
2019-03-17T03:28:49.063Z,9.70
2019-03-17T03:31:19.031Z,9.40
2019-03-17T03:33:48.518Z,9.50
2019-03-17T03:36:18.323Z,9.70
2019-03-17T03:38:55.080Z,9.70
2019-03-17T03:41:24.661Z,9.60
2019-03-17T03:43:54.449Z,9.60
2019-03-17T03:46:25.150Z,9.50
2019-03-17T03:48:54.193Z,9.40
2019-03-17T03:51:25.196Z,9.30
2019-03-17T03:53:53.408Z,9.10
2019-03-17T03:56:23.259Z,9.00
2019-03-17T03:58:52.562Z,8.90
2019-03-17T04:01:22.587Z,8.80
2019-03-17T04:03:51.475Z,8.80
2019-03-17T04:06:26.237Z,8.80
2019-03-17T04:08:50.335Z,8.80
2019-03-17T04:11:18.516Z,8.80
2019-03-17T04:13:46.918Z,8.70
2019-03-17T04:16:16.638Z,8.70
2019-03-17T04:18:46.416Z,8.70
2019-03-17T04:21:16.592Z,8.70
2019-03-17T04:23:44.749Z,8.70
2019-03-17T04:26:13.150Z,8.70
2019-03-17T04:28:41.525Z,8.70
2019-03-17T04:31:14.281Z,8.70
2019-03-17T04:33:41.165Z,8.70
2019-03-17T04:36:10.019Z,8.70
2019-03-17T04:38:38.406Z,8.70
2019-03-17T04:41:06.538Z,8.60
2019-03-17T04:43:34.842Z,8.60
2019-03-17T04:46:03.118Z,8.60
2019-03-17T04:48:31.455Z,8.60
2019-03-17T04:51:01.263Z,8.50
2019-03-17T04:53:29.805Z,8.60
2019-03-17T04:55:58.278Z,8.60
2019-03-17T04:58:27.894Z,8.60
2019-03-17T05:00:56.532Z,8.60
2019-03-17T05:03:24.939Z,8.60
2019-03-17T05:05:54.125Z,8.70
2019-03-17T05:08:24.011Z,8.70
2019-03-17T05:10:53.015Z,8.60
2019-03-17T05:13:22.160Z,8.60
2019-03-17T05:15:50.946Z,8.70
2019-03-17T05:18:21.119Z,8.60
2019-03-17T05:20:49.993Z,8.70
2019-03-17T05:23:25.446Z,8.70
2019-03-17T05:25:54.124Z,8.60
2019-03-17T05:28:23.427Z,8.70
2019-03-17T05:30:52.984Z,8.70
2019-03-17T05:33:23.903Z,8.70
2019-03-17T05:35:52.861Z,8.70
2019-03-17T05:38:22.937Z,8.70
2019-03-17T05:40:51.542Z,8.70
2019-03-17T05:43:19.973Z,8.60
2019-03-17T05:45:48.975Z,8.70
2019-03-17T05:48:17.141Z,8.70
2019-03-17T05:50:45.603Z,8.60
2019-03-17T05:53:13.936Z,8.70
2019-03-17T05:55:42.365Z,8.80
2019-03-17T05:58:10.725Z,8.90
2019-03-17T06:00:39.727Z,9.00
2019-03-17T06:03:08.709Z,9.00
2019-03-17T06:05:38.062Z,9.10
2019-03-17T06:08:06.547Z,9.10
2019-03-17T06:10:35.533Z,9.20
2019-03-17T06:13:04.078Z,9.30
2019-03-17T06:15:32.148Z,9.40
2019-03-17T06:18:01.947Z,9.40
2019-03-17T06:20:30.097Z,9.60
2019-03-17T06:22:59.393Z,9.70
2019-03-17T06:25:28.723Z,9.80
2019-03-17T06:27:57.743Z,9.90
2019-03-17T06:30:26.298Z,9.90
2019-03-17T06:32:54.751Z,10.00
2019-03-17T06:35:24.102Z,10.10
2019-03-17T06:37:52.524Z,10.10
2019-03-17T06:40:21.955Z,10.20
2019-03-17T06:42:50.612Z,10.20
2019-03-17T06:45:19.274Z,10.30
2019-03-17T06:47:47.473Z,10.50
2019-03-17T06:50:16.029Z,10.60
2019-03-17T06:52:45.674Z,10.70
2019-03-17T06:55:14.787Z,10.80
2019-03-17T06:57:43.596Z,10.90
2019-03-17T07:00:13.022Z,10.90
2019-03-17T07:02:41.844Z,11.00
2019-03-17T07:05:10.551Z,11.20
2019-03-17T07:07:44.752Z,11.40
2019-03-17T07:10:14.093Z,11.50
2019-03-17T07:12:43.571Z,11.60
2019-03-17T07:15:13.671Z,11.80
2019-03-17T07:17:44.295Z,11.90
2019-03-17T07:20:14.876Z,12.00
2019-03-17T07:22:43.241Z,12.10
2019-03-17T07:25:11.551Z,12.20
2019-03-17T07:27:41.858Z,12.30
2019-03-17T07:30:11.146Z,12.30
2019-03-17T07:32:39.984Z,12.40
2019-03-17T07:35:08.345Z,12.50
2019-03-17T07:37:36.582Z,12.60
2019-03-17T07:40:05.364Z,12.80
2019-03-17T07:42:33.438Z,12.60
2019-03-17T07:45:02.302Z,12.70
2019-03-17T07:47:30.803Z,12.70
2019-03-17T07:49:59.239Z,12.90
2019-03-17T07:52:27.395Z,13.10
2019-03-17T07:54:56.139Z,13.30
2019-03-17T07:57:24.780Z,13.60
2019-03-17T07:59:53.235Z,14.00
2019-03-17T08:02:21.835Z,14.50
2019-03-17T08:04:50.634Z,14.90
2019-03-17T08:07:19.506Z,15.20
2019-03-17T08:09:47.772Z,15.60
2019-03-17T08:12:16.189Z,15.90
2019-03-17T08:14:44.294Z,16.20
2019-03-17T08:17:12.383Z,16.40
2019-03-17T08:19:40.490Z,16.70
2019-03-17T08:22:09.146Z,17.00
2019-03-17T08:24:37.428Z,17.20
2019-03-17T08:27:05.476Z,17.50
2019-03-17T08:29:33.602Z,17.60
2019-03-17T08:32:02.357Z,17.90
2019-03-17T08:34:30.762Z,18.20
2019-03-17T08:37:00.317Z,18.40
2019-03-17T08:39:28.944Z,18.40
2019-03-17T08:41:57.378Z,18.50
2019-03-17T08:44:26.350Z,18.60
2019-03-17T08:46:54.808Z,18.40
2019-03-17T08:49:24.522Z,18.40
2019-03-17T08:51:53.372Z,17.90
2019-03-17T08:54:22.081Z,18.30
2019-03-17T08:56:51.099Z,18.50
2019-03-17T08:59:20.214Z,18.80
2019-03-17T09:01:49.224Z,18.90
2019-03-17T09:04:28.252Z,19.40
2019-03-17T09:06:58.618Z,19.40
2019-03-17T09:09:27.197Z,19.10
2019-03-17T09:11:55.922Z,19.60
2019-03-17T09:14:27.791Z,19.80
2019-03-17T09:17:26.141Z,20.20
2019-03-17T09:20:02.299Z,20.50
2019-03-17T09:22:32.070Z,19.90
2019-03-17T09:25:04.081Z,20.00
2019-03-17T09:27:32.852Z,20.50
2019-03-17T09:30:03.487Z,20.30
2019-03-17T09:32:31.959Z,20.60
2019-03-17T09:35:00.125Z,21.60
2019-03-17T09:37:29.078Z,22.80
2019-03-17T09:39:59.535Z,24.00
2019-03-17T09:42:28.403Z,24.90
2019-03-17T09:44:57.179Z,25.50
2019-03-17T09:47:25.545Z,25.50
2019-03-17T09:49:53.855Z,24.60
2019-03-17T09:52:22.208Z,23.90
2019-03-17T09:54:50.237Z,23.50
2019-03-17T09:57:18.622Z,25.20
2019-03-17T09:59:53.496Z,25.40
2019-03-17T10:02:21.895Z,23.90
2019-03-17T10:04:52.381Z,24.50
2019-03-17T10:07:21.024Z,24.80
2019-03-17T10:09:50.697Z,25.20
2019-03-17T10:12:19.534Z,25.90
2019-03-17T10:14:50.828Z,24.90
2019-03-17T10:17:21.820Z,24.50
2019-03-17T10:19:49.945Z,24.30
2019-03-17T10:22:19.255Z,25.20
2019-03-17T10:24:47.463Z,25.70
2019-03-17T10:27:15.653Z,26.20
2019-03-17T10:29:43.730Z,25.10
2019-03-17T10:32:13.828Z,25.80
2019-03-17T10:34:42.194Z,26.30
2019-03-17T10:37:10.605Z,25.00
2019-03-17T10:39:38.947Z,24.20
2019-03-17T10:42:07.329Z,22.10
2019-03-17T10:44:35.724Z,21.30
2019-03-17T10:47:04.247Z,20.20
2019-03-17T10:49:32.336Z,20.00
2019-03-17T10:52:02.767Z,20.30
2019-03-17T10:54:40.940Z,19.80
2019-03-17T10:57:09.237Z,19.40
2019-03-17T10:59:40.687Z,19.50
2019-03-17T11:02:09.722Z,19.30
2019-03-17T11:04:41.814Z,19.00
2019-03-17T11:07:10.900Z,18.80
2019-03-17T11:09:39.335Z,18.50
2019-03-17T11:12:08.216Z,18.50
2019-03-17T11:14:47.580Z,18.70
2019-03-17T11:17:17.115Z,18.60
2019-03-17T11:19:46.291Z,18.80
2019-03-17T11:22:16.193Z,18.80
2019-03-17T11:24:45.564Z,18.60
2019-03-17T11:27:15.506Z,18.80
2019-03-17T11:29:46.921Z,18.90
2019-03-17T11:32:16.057Z,18.60
2019-03-17T11:34:45.778Z,18.40
2019-03-17T11:37:17.175Z,18.40
2019-03-17T11:39:46.866Z,18.50
2019-03-17T11:42:17.575Z,18.50
2019-03-17T11:44:47.651Z,18.40
2019-03-17T11:47:17.522Z,18.40
2019-03-17T11:49:47.333Z,18.20
2019-03-17T11:52:17.426Z,18.20
2019-03-17T11:54:46.985Z,18.40
2019-03-17T11:57:17.397Z,18.40
2019-03-17T11:59:47.511Z,18.50
2019-03-17T12:02:26.409Z,18.60
2019-03-17T12:04:51.816Z,18.60
2019-03-17T12:07:21.794Z,18.60
2019-03-17T12:09:51.285Z,18.70
2019-03-17T12:12:20.387Z,18.50
2019-03-17T12:14:49.548Z,18.50
2019-03-17T12:17:22.650Z,18.30
2019-03-17T12:20:13.551Z,18.30
2019-03-17T12:22:42.636Z,18.40
2019-03-17T12:25:24.381Z,18.40
2019-03-17T12:27:54.141Z,18.40
2019-03-17T12:30:23.854Z,18.40
2019-03-17T12:32:53.645Z,18.50
2019-03-17T12:35:23.751Z,18.50
2019-03-17T12:37:53.222Z,18.60
2019-03-17T12:40:24.996Z,18.60
2019-03-17T12:42:54.233Z,18.30
2019-03-17T12:45:24.363Z,18.20
2019-03-17T12:47:54.167Z,18.20
2019-03-17T12:50:23.903Z,18.30
2019-03-17T12:52:53.780Z,18.40
2019-03-17T12:55:24.350Z,18.40
2019-03-17T12:57:55.034Z,18.30
2019-03-17T13:00:27.938Z,18.30
2019-03-17T13:02:59.237Z,18.30
2019-03-17T13:05:32.885Z,18.40
2019-03-17T13:08:05.322Z,18.50
2019-03-17T13:10:36.545Z,18.60
2019-03-17T13:13:05.801Z,18.70
2019-03-17T13:15:35.388Z,18.60
2019-03-17T13:18:04.474Z,18.50
2019-03-17T13:20:33.930Z,18.50
2019-03-17T13:23:04.055Z,18.40
2019-03-17T13:25:33.492Z,18.50
2019-03-17T13:28:03.416Z,18.50
2019-03-17T13:30:36.047Z,18.40
2019-03-17T13:33:06.127Z,18.60
2019-03-17T13:35:35.249Z,18.60
2019-03-17T13:38:04.702Z,18.60
2019-03-17T13:40:36.431Z,18.70
2019-03-17T13:43:05.577Z,18.70
2019-03-17T13:45:40.104Z,18.80
2019-03-17T13:48:11.158Z,18.70
2019-03-17T13:50:40.481Z,18.90
2019-03-17T13:53:09.628Z,18.90
2019-03-17T13:55:39.442Z,18.90
2019-03-17T13:58:09.047Z,18.60
2019-03-17T14:00:39.466Z,18.50
2019-03-17T14:03:09.594Z,18.60
2019-03-17T14:05:40.069Z,18.40
2019-03-17T14:08:09.705Z,18.40
2019-03-17T14:10:48.873Z,18.40
2019-03-17T14:13:18.592Z,18.40
2019-03-17T14:15:48.354Z,18.40
2019-03-17T14:18:17.747Z,18.40
2019-03-17T14:20:50.214Z,18.40
2019-03-17T14:23:20.607Z,18.30
2019-03-17T14:25:51.290Z,18.20
2019-03-17T14:28:21.146Z,18.00
2019-03-17T14:30:51.337Z,18.10
2019-03-17T14:33:20.815Z,18.00
2019-03-17T14:35:51.531Z,18.10
2019-03-17T14:38:23.526Z,18.10
2019-03-17T14:40:57.004Z,17.90
2019-03-17T14:43:25.410Z,17.70
2019-03-17T14:45:54.660Z,17.70
2019-03-17T14:48:25.102Z,17.70
2019-03-17T14:50:54.325Z,17.70
2019-03-17T14:53:25.074Z,17.50
2019-03-17T14:55:55.499Z,17.40
2019-03-17T14:58:30.133Z,17.40
2019-03-17T15:01:02.537Z,17.30
2019-03-17T15:03:33.337Z,17.40
2019-03-17T15:06:04.483Z,17.30
2019-03-17T15:08:33.859Z,17.40
2019-03-17T15:11:06.033Z,17.40
2019-03-17T15:13:36.823Z,17.40
2019-03-17T15:16:06.882Z,17.30
2019-03-17T15:18:37.882Z,17.00
2019-03-17T15:21:08.243Z,17.00
2019-03-17T15:23:40.972Z,17.10
2019-03-17T15:26:21.420Z,17.00
2019-03-17T15:28:58.130Z,17.10
2019-03-17T15:31:46.536Z,17.10
2019-03-17T15:34:19.384Z,16.90
2019-03-17T15:36:53.697Z,17.00
2019-03-17T15:39:26.030Z,16.90
2019-03-17T15:41:54.393Z,16.90
2019-03-17T15:44:23.753Z,16.80
2019-03-17T15:46:53.222Z,16.80
2019-03-17T15:49:25.909Z,16.60
2019-03-17T15:51:55.649Z,16.50
2019-03-17T15:54:28.772Z,16.50
2019-03-17T15:56:58.281Z,16.60
2019-03-17T15:59:28.456Z,16.30
2019-03-17T16:01:58.067Z,16.30
2019-03-17T16:04:28.404Z,16.40
2019-03-17T16:06:58.022Z,16.20
2019-03-17T16:09:31.449Z,16.20
2019-03-17T16:12:01.119Z,16.20
2019-03-17T16:14:30.395Z,16.10
2019-03-17T16:17:02.468Z,16.20
2019-03-17T16:19:37.262Z,16.10
2019-03-17T16:22:06.597Z,16.10
2019-03-17T16:24:36.090Z,15.90
2019-03-17T16:27:15.759Z,16.00
2019-03-17T16:29:46.212Z,15.90
2019-03-17T16:32:20.408Z,15.90
2019-03-17T16:34:53.150Z,15.70
2019-03-17T16:37:23.302Z,15.70
2019-03-17T16:39:58.671Z,15.70
2019-03-17T16:42:30.839Z,15.50
2019-03-17T16:45:00.065Z,15.30
2019-03-17T16:47:29.840Z,15.40
2019-03-17T16:49:59.038Z,15.30
2019-03-17T16:52:33.889Z,14.70
2019-03-17T16:55:03.338Z,14.40
2019-03-17T16:57:33.258Z,13.90
2019-03-17T17:00:05.632Z,13.80
2019-03-17T17:02:53.737Z,13.30
2019-03-17T17:05:24.924Z,13.20
2019-03-17T17:07:55.120Z,13.10
2019-03-17T17:11:31.119Z,12.10
2019-03-17T17:14:02.305Z,11.20
2019-03-17T17:16:31.791Z,10.90
2019-03-17T17:19:01.521Z,10.70
2019-03-17T17:21:29.774Z,10.00
2019-03-17T17:24:01.499Z,9.90
2019-03-17T17:26:37.344Z,10.20
2019-03-17T17:29:00.986Z,9.60
2019-03-17T17:31:29.270Z,9.60
2019-03-17T17:33:57.676Z,9.60
2019-03-17T17:36:27.826Z,9.50
2019-03-17T17:38:59.054Z,9.50
2019-03-17T17:41:36.095Z,9.40
2019-03-17T17:44:07.344Z,9.30
2019-03-17T17:46:37.173Z,9.20
2019-03-17T17:49:28.506Z,9.40
2019-03-17T17:54:54.023Z,8.10
2019-03-17T17:57:26.098Z,7.80
2019-03-17T18:00:02.207Z,7.70
2019-03-17T18:02:34.430Z,7.70
2019-03-17T18:05:07.790Z,7.60
2019-03-17T18:07:44.363Z,8.00
2019-03-17T18:10:17.486Z,7.90
2019-03-17T18:12:49.355Z,8.20
2019-03-17T18:15:22.844Z,8.10
2019-03-17T18:17:56.197Z,8.20
2019-03-17T18:20:28.266Z,7.70
2019-03-17T18:23:02.930Z,7.60
2019-03-17T18:25:36.433Z,7.70
2019-03-17T18:28:07.943Z,7.60
2019-03-17T18:30:47.780Z,7.40
2019-03-17T18:33:20.734Z,7.00
2019-03-17T18:35:51.861Z,7.10
2019-03-17T18:38:22.480Z,7.00
2019-03-17T18:40:56.713Z,7.00
2019-03-17T18:43:29.431Z,6.90
2019-03-17T18:46:00.596Z,7.10
2019-03-17T18:48:30.428Z,7.00
2019-03-17T18:51:00.823Z,7.00
2019-03-17T18:53:30.107Z,7.20
2019-03-17T18:56:05.308Z,6.70
2019-03-17T18:58:35.543Z,6.80
2019-03-17T19:01:05.194Z,6.90
2019-03-17T19:03:34.689Z,6.70
2019-03-17T19:06:04.234Z,6.80
2019-03-17T19:08:33.605Z,6.40
2019-03-17T19:11:02.090Z,6.30
2019-03-17T19:13:30.377Z,6.60
2019-03-17T19:15:58.563Z,6.60
2019-03-17T19:18:26.974Z,6.40
2019-03-17T19:21:20.368Z,6.50
2019-03-17T19:24:07.175Z,6.60
2019-03-17T19:26:28.252Z,6.60
2019-03-17T19:29:00.329Z,6.60
2019-03-17T19:31:42.277Z,6.50
2019-03-17T19:34:13.672Z,6.70
2019-03-17T19:36:42.827Z,6.80
2019-03-17T19:39:41.243Z,7.00
2019-03-17T19:45:12.623Z,6.60
2019-03-17T19:47:44.193Z,6.40
2019-03-17T19:50:14.218Z,6.50
2019-03-17T19:52:53.075Z,6.40
2019-03-17T19:55:22.600Z,6.70
2019-03-17T19:57:51.799Z,6.50
2019-03-17T20:00:21.185Z,6.60
2019-03-17T20:03:12.673Z,6.60
2019-03-17T20:05:43.085Z,6.70
2019-03-17T20:08:13.774Z,6.50
2019-03-17T20:10:43.212Z,6.60
2019-03-17T20:13:12.664Z,6.60
2019-03-17T20:15:47.740Z,6.40
2019-03-17T20:18:21.979Z,6.20
2019-03-17T20:20:52.281Z,6.30
2019-03-17T20:23:24.913Z,6.30
2019-03-17T20:26:19.306Z,6.50
2019-03-17T20:32:20.392Z,6.50
2019-03-17T20:34:51.828Z,6.30
2019-03-17T20:37:23.278Z,6.30
2019-03-17T20:40:14.202Z,6.30
2019-03-17T20:42:44.387Z,6.30
2019-03-17T20:45:20.407Z,6.50
2019-03-17T20:47:49.954Z,6.50
2019-03-17T20:50:25.660Z,6.70
2019-03-17T20:52:57.022Z,6.80
2019-03-17T20:55:52.445Z,6.80
2019-03-17T20:58:19.709Z,6.70
2019-03-17T21:00:55.361Z,6.70
2019-03-17T21:03:24.692Z,6.60
2019-03-17T21:05:54.719Z,6.50
2019-03-17T21:08:26.443Z,6.40
2019-03-17T21:10:56.086Z,6.20
2019-03-17T21:13:27.530Z,6.00
2019-03-17T21:15:57.765Z,6.30
2019-03-17T21:18:30.255Z,6.30
2019-03-17T21:20:59.915Z,6.40
2019-03-17T21:23:37.008Z,6.50
2019-03-17T21:26:08.472Z,6.50
2019-03-17T21:28:47.644Z,6.30
2019-03-17T21:35:36.180Z,6.50
2019-03-17T21:38:30.086Z,6.60
2019-03-17T21:41:42.589Z,6.70
2019-03-17T21:48:13.553Z,6.50
2019-03-17T21:51:03.727Z,6.30
2019-03-17T21:53:40.863Z,6.30
2019-03-17T21:56:12.888Z,6.20
2019-03-17T21:58:47.787Z,6.10
2019-03-17T22:01:21.419Z,6.10
2019-03-17T22:04:06.031Z,6.10
2019-03-17T22:06:38.943Z,6.20
2019-03-17T22:09:12.367Z,6.30
2019-03-17T22:11:43.593Z,6.40
2019-03-17T22:14:15.874Z,6.50
2019-03-17T22:16:49.269Z,6.50
2019-03-17T22:19:20.305Z,6.30
2019-03-17T22:22:12.442Z,6.20
2019-03-17T22:24:56.361Z,6.20
2019-03-17T22:27:27.131Z,6.00
2019-03-17T22:29:58.669Z,6.20
2019-03-17T22:32:29.239Z,6.20
2019-03-17T22:35:16.312Z,6.10
2019-03-17T22:38:01.868Z,6.10
2019-03-17T22:40:32.060Z,6.00
2019-03-17T22:43:02.776Z,5.80
2019-03-17T22:45:34.611Z,5.90
2019-03-17T22:48:05.689Z,5.70
2019-03-17T22:50:35.844Z,5.80
2019-03-17T22:53:06.043Z,5.90
2019-03-17T22:55:39.175Z,6.00
2019-03-17T22:58:07.577Z,6.00
2019-03-17T23:00:40.816Z,6.00
2019-03-17T23:03:10.465Z,6.00
2019-03-17T23:05:40.695Z,6.00
2019-03-17T23:08:15.091Z,6.00
2019-03-17T23:10:44.708Z,5.90
2019-03-17T23:13:12.974Z,6.00
2019-03-17T23:15:42.724Z,5.90
2019-03-17T23:18:14.419Z,5.80
2019-03-17T23:20:43.088Z,5.80
2019-03-17T23:23:12.176Z,5.70
2019-03-17T23:25:42.336Z,5.80
2019-03-17T23:28:11.212Z,5.70
2019-03-17T23:30:43.492Z,5.70
2019-03-17T23:33:12.608Z,5.80
2019-03-17T23:35:41.574Z,5.70
2019-03-17T23:38:09.639Z,5.80
2019-03-17T23:40:38.578Z,5.80
2019-03-17T23:43:07.001Z,5.80
2019-03-17T23:45:35.382Z,5.80
2019-03-17T23:48:03.753Z,5.90
2019-03-17T23:50:32.121Z,5.90
2019-03-17T23:53:00.181Z,5.60
2019-03-17T23:55:28.591Z,5.60
2019-03-17T23:57:56.847Z,5.70
